Time;durP1;ratioP1;P1;durP2;ratioP2;P2;SDS_P1;SDS_P2;PMS_P1;PMS_P2;Temp;Humidity;BMP_temperature;BMP_pressure;BME280_temperature;BME280_humidity;BME280_pressure;Samples;Min_cycle;Max_cycle;Signal;HPM_P1;HPM_P2
2022/08/18 00:02:24;;;;;;;7.63;3.42;;;;;;;19.34;87.80;98408.81;5094715;28;20020;-48
2022/08/18 00:04:51;;;;;;;9.25;3.25;;;;;;;19.47;87.91;98393.38;5094722;28;20095;-50
2022/08/18 00:07:21;;;;;;;6.90;2.70;;;;;;;19.68;87.06;98395.00;5094602;28;20027;-50
2022/08/18 00:09:47;;;;;;;8.68;3.42;;;;;;;19.83;86.17;98402.19;5094644;28;20073;-50
2022/08/18 00:12:20;;;;;;;11.30;3.70;;;;;;;19.85;85.29;98407.25;5093161;28;20032;-48
2022/08/18 00:14:47;;;;;;;6.13;3.25;;;;;;;19.83;85.17;98409.41;5094559;28;20106;-50
2022/08/18 00:17:13;;;;;;;18.95;4.78;;;;;;;19.86;85.45;98400.84;5093095;28;20052;-49
2022/08/18 00:19:39;;;;;;;9.07;3.63;;;;;;;19.86;85.34;98390.19;5093042;28;20603;-50
2022/08/18 00:22:06;;;;;;;24.45;16.35;;;;;;;19.87;85.42;98387.28;5093032;28;20107;-50
2022/08/18 00:24:32;;;;;;;12.43;5.97;;;;;;;19.94;85.22;98381.66;5094278;28;20028;-49
2022/08/18 00:26:58;;;;;;;13.02;4.43;;;;;;;20.00;85.11;98374.47;5093969;28;20104;-50
2022/08/18 00:29:24;;;;;;;7.43;4.15;;;;;;;20.03;84.90;98379.28;5094139;28;20020;-49
2022/08/18 00:31:50;;;;;;;14.85;4.80;;;;;;;20.02;84.76;98383.81;5094084;28;20129;-48
2022/08/18 00:34:16;;;;;;;21.80;7.00;;;;;;;20.06;85.08;98373.38;5094145;28;20032;-48
2022/08/18 00:36:42;;;;;;;25.00;5.50;;;;;;;20.07;85.11;98357.16;5094055;28;20099;-50
2022/08/18 00:39:09;;;;;;;22.17;6.05;;;;;;;20.14;84.50;98362.19;5094026;28;20066;-48
2022/08/18 00:41:34;;;;;;;8.98;5.35;;;;;;;20.20;84.27;98371.75;5093919;28;20020;-48
2022/08/18 00:44:00;;;;;;;9.20;5.60;;;;;;;20.19;83.92;98367.50;5092885;28;20073;-49
2022/08/18 00:46:35;;;;;;;14.18;8.23;;;;;;;20.22;83.75;98372.31;5092569;28;20039;-48
2022/08/18 00:49:02;;;;;;;14.70;7.90;;;;;;;20.17;84.04;98363.53;5093927;28;20032;-49
2022/08/18 00:51:44;;;;;;;11.00;5.63;;;;;;;20.12;83.98;98366.97;5092474;28;20024;-50
2022/08/18 00:54:40;;;;;;;7.88;5.85;;;;;;;20.00;83.90;98374.47;5093807;28;20081;-48
2022/08/18 00:57:08;;;;;;;11.77;6.30;;;;;;;19.81;84.54;98371.59;5075375;28;20028;-49
2022/08/18 00:59:46;;;;;;;11.63;5.88;;;;;;;19.79;85.17;98360.41;5093545;28;20036;-47
2022/08/18 01:02:31;;;;;;;12.80;5.63;;;;;;;19.75;84.91;98371.56;5092467;28;20039;-48
2022/08/18 01:05:04;;;;;;;39.70;36.17;;;;;;;19.64;85.08;98371.81;5093557;28;20098;-49
2022/08/18 01:07:41;;;;;;;25.75;22.15;;;;;;;19.41;84.32;98373.94;5093160;28;20528;-49
2022/08/18 01:10:07;;;;;;;13.32;7.90;;;;;;;19.15;84.82;98373.91;5093321;28;20077;-49
2022/08/18 01:12:33;;;;;;;12.40;6.47;;;;;;;19.01;85.36;98362.19;5093341;28;20107;-50
2022/08/18 01:14:59;;;;;;;8.70;7.07;;;;;;;18.90;85.56;98363.25;5092000;28;20027;-49
2022/08/18 01:23:18;;;;;;;598.38;538.65;;;;;;;18.94;86.65;98359.00;5070946;28;20040;-47
2022/08/18 01:25:59;;;;;;;61.03;54.85;;;;;;;18.97;86.38;98358.47;5070623;28;20040;-46
2022/08/18 01:28:28;;;;;;;256.33;234.18;;;;;;;19.00;86.61;98357.16;5070548;28;20040;-48
2022/08/18 01:30:57;;;;;;;479.92;437.08;;;;;;;19.12;86.54;98347.06;5070486;28;20048;-46
2022/08/18 01:33:32;;;;;;;1306.50;921.88;;;;;;;19.56;86.23;98344.69;5070391;28;20529;-46
2022/08/18 01:36:19;;;;;;;1999.90;999.90;;;;;;;19.58;84.34;98344.41;5053998;28;20040;-46
2022/08/18 01:38:51;;;;;;;1635.43;949.03;;;;;;;19.56;83.81;98341.22;5070424;28;20043;-46
2022/08/18 01:41:20;;;;;;;1999.90;999.90;;;;;;;19.56;84.34;98331.38;5053487;28;20119;-48
2022/08/18 01:43:47;;;;;;;490.98;438.90;;;;;;;19.68;83.74;98331.09;5070119;28;20086;-48
2022/08/18 01:46:18;;;;;;;664.20;599.58;;;;;;;19.73;83.62;98330.31;5070192;28;20028;-47
2022/08/18 01:48:45;;;;;;;58.35;46.00;;;;;;;19.94;82.39;98329.22;5053560;28;20040;-47
2022/08/18 01:51:12;;;;;;;175.98;159.05;;;;;;;19.85;82.43;98325.50;5053293;28;20086;-47
2022/08/18 01:53:38;;;;;;;103.35;92.63;;;;;;;20.20;83.17;98325.66;5070048;28;20029;-48
2022/08/18 01:56:05;;;;;;;793.33;707.75;;;;;;;20.52;81.39;98336.75;5075006;28;20428;-48
2022/08/18 01:58:33;;;;;;;84.78;71.88;;;;;;;20.71;79.16;98336.94;5092569;28;20047;-47
2022/08/18 02:01:00;;;;;;;25.27;18.35;;;;;;;20.38;78.45;98337.59;5092382;28;20024;-47
2022/08/18 02:03:36;;;;;;;25.20;18.45;;;;;;;19.81;78.95;98345.75;5092377;28;20487;-48
2022/08/18 02:06:08;;;;;;;20.95;18.27;;;;;;;19.50;80.38;98347.63;5092422;28;20438;-47
2022/08/18 02:08:34;;;;;;;11.48;10.27;;;;;;;19.19;80.86;98352.13;5092414;28;20028;-47
2022/08/18 02:11:00;;;;;;;8.10;6.35;;;;;;;18.93;81.85;98360.88;5092244;28;20032;-48
2022/08/18 02:13:26;;;;;;;15.63;7.18;;;;;;;18.76;82.46;98347.75;5092323;28;20078;-47
2022/08/18 02:15:52;;;;;;;10.30;7.07;;;;;;;18.56;82.68;98348.50;5092178;28;20032;-48
2022/08/18 02:18:21;;;;;;;8.27;7.40;;;;;;;18.36;82.86;98359.84;5090232;28;20115;-47
2022/08/18 02:20:47;;;;;;;13.60;7.57;;;;;;;18.15;83.72;98360.81;5092085;28;20020;-46
2022/08/18 02:23:13;;;;;;;13.93;8.40;;;;;;;18.02;85.02;98359.41;5090872;28;20024;-48
2022/08/18 02:25:42;;;;;;;7.88;6.60;;;;;;;18.14;85.90;98362.66;5090778;28;20062;-47
2022/08/18 02:28:08;;;;;;;14.57;7.15;;;;;;;18.14;85.84;98351.22;5091786;28;20090;-47
2022/08/18 02:30:36;;;;;;;8.75;7.28;;;;;;;18.05;85.61;98353.59;5092053;28;20069;-48
2022/08/18 02:33:10;;;;;;;10.45;7.10;;;;;;;17.89;85.82;98354.56;5092223;28;20033;-47
2022/08/18 02:35:37;;;;;;;9.15;8.25;;;;;;;17.84;86.49;98343.88;5090688;28;20511;-48
2022/08/18 02:38:05;;;;;;;9.73;7.88;;;;;;;17.75;86.75;98344.34;5090634;28;20059;-49
2022/08/18 02:40:32;;;;;;;9.23;7.38;;;;;;;17.69;87.05;98333.94;5091813;28;20034;-48
2022/08/18 02:43:04;;;;;;;8.30;7.50;;;;;;;17.60;87.07;98335.47;5090557;28;20032;-49
2022/08/18 02:45:29;;;;;;;14.60;8.55;;;;;;;17.47;87.41;98342.00;5090567;28;20028;-49
2022/08/18 02:47:56;;;;;;;12.35;7.25;;;;;;;17.44;87.82;98335.34;5091898;28;20016;-50
2022/08/18 02:50:23;;;;;;;7.97;7.05;;;;;;;17.45;88.10;98342.25;5091819;28;20025;-49
2022/08/18 02:52:48;;;;;;;11.80;6.90;;;;;;;17.42;88.07;98336.66;5090473;28;20031;-49
2022/08/18 02:55:17;;;;;;;17.98;8.13;;;;;;;17.37;88.14;98319.66;5092099;28;20028;-48
2022/08/18 02:57:46;;;;;;;10.82;7.25;;;;;;;17.44;88.53;98316.78;5091762;28;20394;-48
2022/08/18 03:00:16;;;;;;;11.52;6.97;;;;;;;17.55;88.36;98310.50;5090363;28;20023;-49
2022/08/18 03:02:50;;;;;;;80.93;11.68;;;;;;;17.53;87.44;98314.47;5091884;28;20032;-49
2022/08/18 03:05:18;;;;;;;10.35;8.68;;;;;;;17.42;87.07;98312.78;5091712;28;20107;-49
2022/08/18 03:07:45;;;;;;;19.27;9.35;;;;;;;17.30;87.22;98311.09;5090393;28;20024;-51
2022/08/18 03:10:13;;;;;;;10.35;8.50;;;;;;;17.21;87.56;98317.94;5090409;28;20048;-52
2022/08/18 03:12:42;;;;;;;12.40;8.55;;;;;;;17.11;87.87;98310.69;5091711;28;20039;-49
2022/08/18 03:15:08;;;;;;;14.98;7.57;;;;;;;17.12;88.69;98312.28;5091537;28;20111;-49
2022/08/18 03:17:36;;;;;;;8.93;6.70;;;;;;;17.17;88.29;98307.03;5091628;28;20055;-48
2022/08/18 03:20:03;;;;;;;10.18;7.30;;;;;;;17.14;87.42;98304.06;5091383;28;20077;-50
2022/08/18 03:22:28;;;;;;;9.45;8.45;;;;;;;17.05;87.49;98306.38;5091564;28;20455;-49
2022/08/18 03:24:54;;;;;;;14.10;10.75;;;;;;;17.01;87.97;98299.97;5091520;28;20043;-49
2022/08/18 03:27:20;;;;;;;9.98;8.50;;;;;;;16.97;88.14;98304.19;5091379;28;20047;-48
2022/08/18 03:29:46;;;;;;;10.93;8.45;;;;;;;16.92;88.34;98298.81;5091115;28;20028;-50
2022/08/18 03:32:11;;;;;;;12.10;8.98;;;;;;;16.87;88.32;98304.09;5095652;28;20103;-51
2022/08/18 03:34:37;;;;;;;9.68;8.25;;;;;;;16.86;88.76;98299.84;5095268;28;20031;-49
2022/08/18 03:37:04;;;;;;;11.82;10.05;;;;;;;16.86;88.99;98300.66;5095230;28;20105;-49
2022/08/18 03:39:30;;;;;;;10.40;8.80;;;;;;;16.86;89.03;98298.00;5095149;28;20065;-47
2022/08/18 03:41:56;;;;;;;9.98;8.88;;;;;;;16.88;89.21;98298.56;5095304;28;20020;-49
2022/08/18 03:44:23;;;;;;;11.50;9.93;;;;;;;16.92;89.28;98299.66;5095082;28;20032;-49
2022/08/18 03:46:50;;;;;;;10.75;9.07;;;;;;;16.93;88.71;98287.97;5095062;28;20031;-49
2022/08/18 03:49:17;;;;;;;10.23;8.85;;;;;;;16.93;88.02;98298.59;5095019;28;20103;-49
2022/08/18 03:51:45;;;;;;;18.17;16.25;;;;;;;16.92;87.84;98299.66;5093596;28;20032;-49
2022/08/18 03:54:12;;;;;;;16.77;10.00;;;;;;;17.03;88.97;98305.03;5094924;28;20024;-49
2022/08/18 03:56:39;;;;;;;15.60;10.82;;;;;;;17.15;88.04;98303.03;5094778;28;20024;-49
2022/08/18 03:59:16;;;;;;;11.43;10.23;;;;;;;17.09;87.32;98296.09;5094830;28;20024;-49
2022/08/18 04:01:43;;;;;;;13.85;10.27;;;;;;;17.05;87.38;98298.44;5094782;28;20023;-48
2022/08/18 04:04:14;;;;;;;13.23;10.80;;;;;;;16.99;87.11;98307.38;5094705;28;20024;-49
2022/08/18 04:06:49;;;;;;;13.23;11.10;;;;;;;16.93;87.61;98311.03;5094703;28;20107;-50
2022/08/18 04:09:16;;;;;;;15.25;10.93;;;;;;;16.91;87.97;98305.19;5094668;28;20035;-49
2022/08/18 04:11:44;;;;;;;20.75;11.80;;;;;;;16.95;88.39;98296.47;5093235;28;20119;-49
2022/08/18 04:14:12;;;;;;;35.20;27.70;;;;;;;17.10;89.07;98303.78;5094623;28;20490;-51
2022/08/18 04:16:39;;;;;;;15.85;12.77;;;;;;;17.29;88.90;98322.75;5093241;28;20039;-51
2022/08/18 04:19:05;;;;;;;18.60;13.25;;;;;;;17.52;88.85;98316.28;5094424;28;20036;-49
2022/08/18 04:21:34;;;;;;;19.70;12.63;;;;;;;17.73;88.25;98316.47;5110182;28;20032;-49
2022/08/18 04:24:03;;;;;;;16.73;13.85;;;;;;;17.74;86.10;98316.19;5094429;28;20024;-50
2022/08/18 04:26:35;;;;;;;14.63;12.73;;;;;;;17.55;85.08;98317.66;5094092;28;20039;-49
2022/08/18 04:29:02;;;;;;;14.23;11.93;;;;;;;17.40;85.26;98312.22;5093013;28;20042;-51
2022/08/18 04:31:29;;;;;;;13.85;12.45;;;;;;;17.29;85.72;98312.16;5094181;28;20406;-50
2022/08/18 04:33:57;;;;;;;15.95;14.13;;;;;;;17.16;85.79;98310.72;5092840;28;20059;-49
2022/08/18 04:36:24;;;;;;;15.95;13.38;;;;;;;17.09;86.53;98312.00;5094159;28;20025;-49
2022/08/18 04:38:50;;;;;;;18.27;13.82;;;;;;;17.08;86.95;98310.38;5094098;28;20020;-50
2022/08/18 04:41:17;;;;;;;17.95;13.20;;;;;;;17.07;86.67;98303.50;5093468;28;20062;-51
2022/08/18 04:43:42;;;;;;;15.82;10.65;;;;;;;17.06;87.00;98309.81;5093952;28;20405;-50
2022/08/18 04:46:08;;;;;;;15.25;13.68;;;;;;;17.09;86.97;98317.28;5092576;28;20020;-51
2022/08/18 04:48:37;;;;;;;13.95;12.48;;;;;;;17.07;86.86;98319.41;5093879;28;20056;-50
2022/08/18 04:51:09;;;;;;;11.38;8.75;;;;;;;17.09;86.57;98315.44;5093765;28;20028;-50
2022/08/18 04:53:45;;;;;;;11.80;8.88;;;;;;;17.12;85.64;98319.41;5092533;28;20465;-51
2022/08/18 04:56:25;;;;;;;13.32;9.50;;;;;;;17.10;85.48;98319.69;5092484;28;20059;-51
2022/08/18 04:58:53;;;;;;;13.38;9.63;;;;;;;17.13;85.69;98326.34;5093644;28;20028;-50
2022/08/18 05:01:25;;;;;;;10.68;9.45;;;;;;;17.20;85.71;98336.72;5093531;28;20020;-50
2022/08/18 05:03:53;;;;;;;13.02;9.80;;;;;;;17.25;84.81;98329.63;5092324;28;20039;-51
2022/08/18 05:06:24;;;;;;;11.73;9.52;;;;;;;17.35;85.11;98326.25;5092515;28;20078;-49
2022/08/18 05:08:54;;;;;;;15.13;10.23;;;;;;;17.76;84.50;98323.91;5093558;28;20386;-50
2022/08/18 05:11:21;;;;;;;17.60;11.20;;;;;;;18.24;82.63;98319.41;5093506;28;20040;-51
2022/08/18 05:13:47;;;;;;;15.23;11.50;;;;;;;18.65;80.85;98313.44;5092070;28;20055;-51
2022/08/18 05:16:13;;;;;;;19.33;11.10;;;;;;;19.04;80.17;98313.00;5091971;28;20059;-52
2022/08/18 05:18:39;;;;;;;25.70;11.00;;;;;;;19.54;79.31;98303.44;5093298;28;20103;-53
2022/08/18 05:21:14;;;;;;;20.20;11.90;;;;;;;19.79;78.06;98289.28;5093109;28;20024;-51
2022/08/18 05:23:44;;;;;;;13.38;9.80;;;;;;;19.87;77.88;98291.41;5093289;28;20512;-51
2022/08/18 05:26:13;;;;;;;15.95;10.20;;;;;;;20.14;75.87;98291.06;5092906;28;20401;-50
2022/08/18 05:28:40;;;;;;;12.60;9.25;;;;;;;20.63;74.38;98289.50;5093096;28;20031;-49
2022/08/18 05:31:12;;;;;;;23.48;10.70;;;;;;;20.77;73.13;98287.03;5091754;28;20550;-49
2022/08/18 05:33:39;;;;;;;21.13;7.18;;;;;;;20.58;73.05;98288.72;5093031;28;20031;-49
2022/08/18 05:36:32;;;;;;;12.93;6.05;;;;;;;20.78;71.87;98295.81;5092942;28;20035;-49
2022/08/18 05:39:13;;;;;;;13.88;6.13;;;;;;;21.14;71.02;98299.03;5084433;28;20036;-49
2022/08/18 05:41:44;;;;;;;22.98;7.05;;;;;;;21.78;68.63;98301.72;5091471;28;20051;-49
2022/08/18 05:44:14;;;;;;;6.65;5.85;;;;;;;22.17;66.90;98293.50;5092902;28;20020;-48
2022/08/18 05:46:53;;;;;;;19.88;6.38;;;;;;;22.06;66.85;98292.84;5091560;28;20028;-50
2022/08/18 05:49:21;;;;;;;45.35;8.52;;;;;;;21.98;67.36;98296.16;5092785;28;20028;-49
2022/08/18 05:52:02;;;;;;;13.68;7.15;;;;;;;21.67;67.83;98295.66;5091364;28;20120;-49
2022/08/18 05:57:24;;;;;;;23.83;11.25;;;;;;;21.29;68.95;98314.94;5092861;28;20409;-50
2022/08/18 05:59:52;;;;;;;39.40;10.70;;;;;;;21.45;68.90;98323.66;5091111;28;20042;-50
2022/08/18 06:02:34;;;;;;;12.98;8.25;;;;;;;22.11;67.22;98326.72;5091140;28;20030;-48
2022/08/18 06:05:11;;;;;;;64.43;57.80;;;;;;;22.05;66.69;98339.34;5092415;28;20042;-47
2022/08/18 06:07:43;;;;;;;28.27;11.60;;;;;;;22.30;66.47;98345.53;5092434;28;20031;-47
2022/08/18 06:10:10;;;;;;;19.50;9.75;;;;;;;22.76;64.58;98339.59;5092587;28;20063;-48
2022/08/18 06:12:40;;;;;;;45.22;10.00;;;;;;;23.29;62.28;98342.03;5092269;28;20099;-48
2022/08/18 06:15:06;;;;;;;20.35;10.57;;;;;;;23.75;60.72;98337.81;5092330;28;20039;-47
2022/08/18 06:17:47;;;;;;;24.17;10.38;;;;;;;24.41;57.77;98333.09;5090983;28;20024;-49
2022/08/18 06:20:19;;;;;;;14.50;10.45;;;;;;;25.31;56.64;98332.47;5092184;28;20108;-48
2022/08/18 06:23:26;;;;;;;20.35;10.98;;;;;;;26.16;55.91;98331.66;5092232;28;20070;-50
2022/08/18 06:26:33;;;;;;;21.75;10.15;;;;;;;27.37;53.18;98328.31;5068682;28;20464;-50
2022/08/18 06:29:39;;;;;;;12.52;9.00;;;;;;;27.70;51.46;98338.53;5092197;28;20161;-47
2022/08/18 06:32:14;;;;;;;18.65;9.07;;;;;;;26.98;49.49;98342.75;5083573;28;20088;-48
2022/08/18 06:35:01;;;;;;;11.48;8.55;;;;;;;26.94;51.27;98342.56;5092068;28;20035;-47
2022/08/18 06:38:37;;;;;;;12.13;8.55;;;;;;;27.17;49.80;98353.22;5092074;28;20031;-48
2022/08/18 06:40:27;;;;;;;14.68;8.00;;;;;;;27.65;49.20;98354.91;5091658;28;20086;-48
2022/08/18 06:42:53;;;;;;;16.88;7.43;;;;;;;28.01;47.80;98349.09;5090604;28;20024;-49
2022/08/18 06:45:29;;;;;;;17.55;8.07;;;;;;;28.44;47.66;98348.09;5090584;28;20028;-49
2022/08/18 06:48:02;;;;;;;42.30;22.50;;;;;;;28.51;47.40;98341.41;5091916;28;20077;-49
2022/08/18 06:50:47;;;;;;;14.20;7.50;;;;;;;28.25;48.05;98348.53;5090536;28;20032;-49
2022/08/18 06:53:13;;;;;;;21.17;8.18;;;;;;;27.74;49.04;98344.88;5090617;28;20024;-48
2022/08/18 06:55:45;;;;;;;18.75;8.10;;;;;;;27.30;50.20;98344.19;5091777;28;20031;-50
2022/08/18 06:58:12;;;;;;;13.27;7.35;;;;;;;27.16;50.04;98355.09;5090569;28;20028;-50
2022/08/18 07:00:48;;;;;;;21.00;8.02;;;;;;;27.25;49.91;98345.16;5091657;28;20016;-48
2022/08/18 07:03:18;;;;;;;11.07;7.38;;;;;;;27.77;49.05;98338.84;5091830;28;20244;-48
2022/08/18 07:06:09;;;;;;;9.23;6.75;;;;;;;28.38;48.60;98329.72;5094345;28;20052;-48
2022/08/18 07:08:44;;;;;;;14.63;6.35;;;;;;;28.65;47.15;98331.97;5095800;28;20028;-49
2022/08/18 07:11:20;;;;;;;8.77;6.07;;;;;;;29.33;45.60;98322.03;5095760;28;20052;-50
2022/08/18 07:14:10;;;;;;;9.25;5.63;;;;;;;29.22;44.83;98322.44;5095767;28;20024;-50
2022/08/18 07:16:35;;;;;;;6.07;4.72;;;;;;;29.26;44.21;98323.38;5088148;28;20040;-50
2022/08/18 07:19:11;;;;;;;9.45;5.45;;;;;;;29.82;44.10;98322.94;5094359;28;20020;-50
2022/08/18 07:21:39;;;;;;;11.80;5.20;;;;;;;30.86;40.83;98311.78;5095468;28;20111;-48
2022/08/18 07:24:18;;;;;;;16.42;5.93;;;;;;;29.84;41.16;98312.59;5095536;28;20027;-49
2022/08/18 07:27:14;;;;;;;22.42;7.38;;;;;;;28.62;44.35;98323.72;5095229;28;20048;-50
2022/08/18 07:30:11;;;;;;;15.80;7.85;;;;;;;28.02;46.28;98323.69;5094119;28;20063;-49
2022/08/18 07:32:46;;;;;;;20.27;11.25;;;;;;;27.53;46.96;98317.00;5089374;28;20119;-49
2022/08/18 07:35:18;;;;;;;27.80;12.23;;;;;;;27.01;48.90;98315.97;5095371;28;20016;-49
2022/08/18 07:38:16;;;;;;;25.70;12.25;;;;;;;27.35;49.33;98308.22;5095296;28;20067;-49
2022/08/18 07:41:19;;;;;;;12.15;7.70;;;;;;;27.84;47.75;98300.59;5095137;28;20024;-49
2022/08/18 07:43:50;;;;;;;22.30;8.63;;;;;;;27.44;47.85;98311.66;5084944;28;20523;-50
2022/08/18 07:46:28;;;;;;;11.20;7.53;;;;;;;27.09;48.43;98301.69;5095069;28;20531;-49
2022/08/18 07:48:59;;;;;;;10.82;8.13;;;;;;;27.05;48.89;98313.44;5095174;28;20393;-50
2022/08/18 07:51:42;;;;;;;11.30;6.78;;;;;;;28.54;46.85;98303.75;5095026;28;20390;-50
2022/08/18 07:54:14;;;;;;;12.40;6.60;;;;;;;29.58;43.57;98307.44;5094995;28;20040;-48
2022/08/18 07:56:58;;;;;;;9.55;7.22;;;;;;;29.48;43.44;98300.56;5094930;28;20103;-49
2022/08/18 07:59:55;;;;;;;22.70;7.15;;;;;;;29.51;44.07;98290.97;5094860;28;20125;-49
2022/08/18 08:02:20;;;;;;;10.85;7.13;;;;;;;30.62;41.62;98290.97;5082725;28;20028;-49
2022/08/18 08:04:49;;;;;;;8.48;6.80;;;;;;;31.01;40.44;98285.91;5093689;28;20024;-51
2022/08/18 08:07:22;;;;;;;11.15;6.55;;;;;;;31.44;39.69;98268.84;5094669;28;20082;-50
2022/08/18 08:09:51;;;;;;;14.77;6.07;;;;;;;32.76;38.05;98266.78;5094682;28;20032;-49
2022/08/18 08:12:40;;;;;;;11.02;5.60;;;;;;;34.29;35.86;98250.72;5094566;28;20493;-50
2022/08/18 08:15:21;;;;;;;16.20;11.95;;;;;;;35.59;33.50;98240.81;5093249;28;20031;-50
2022/08/18 08:18:24;;;;;;;22.95;12.75;;;;;;;35.63;32.41;98227.19;5093357;28;20031;-48
2022/08/18 08:21:09;;;;;;;8.73;5.22;;;;;;;33.81;34.48;98230.19;5093881;28;20409;-48
2022/08/18 08:23:53;;;;;;;10.73;5.38;;;;;;;32.84;36.40;98231.25;5094378;28;20028;-48
2022/08/18 08:26:28;;;;;;;9.45;4.05;;;;;;;31.85;37.73;98249.66;5092863;28;20082;-49
2022/08/18 08:29:12;;;;;;;14.77;4.32;;;;;;;31.62;38.39;98266.59;5094362;28;20036;-48
2022/08/18 08:31:53;;;;;;;12.15;4.20;;;;;;;32.63;37.01;98285.19;5094245;28;20036;-48
2022/08/18 08:34:37;;;;;;;8.82;3.92;;;;;;;33.07;35.64;98284.09;5094274;28;20028;-49
2022/08/18 08:37:08;;;;;;;5.22;3.70;;;;;;;33.08;35.18;98296.53;5094238;28;20065;-49
2022/08/18 08:39:56;;;;;;;8.93;3.50;;;;;;;32.80;35.70;98297.53;5094164;28;20036;-49
2022/08/18 08:42:44;;;;;;;4.32;3.53;;;;;;;32.96;34.91;98283.88;5094088;28;20031;-48
2022/08/18 08:45:33;;;;;;;16.98;4.55;;;;;;;33.77;34.66;98291.19;5094243;28;20107;-47
2022/08/18 08:48:27;;;;;;;6.80;3.47;;;;;;;33.89;34.07;98295.66;5094014;28;20099;-49
2022/08/18 08:50:59;;;;;;;28.23;10.57;;;;;;;34.07;34.09;98290.44;5091821;28;20502;-49
2022/08/18 08:53:33;;;;;;;5.47;2.75;;;;;;;34.54;33.29;98289.19;5093976;28;20051;-48
2022/08/18 08:56:05;;;;;;;14.20;4.32;;;;;;;34.89;32.24;98305.22;5093766;28;20489;-49
2022/08/18 08:58:47;;;;;;;6.60;2.83;;;;;;;35.72;31.11;98279.56;5092501;28;20054;-48
2022/08/18 09:01:31;;;;;;;20.38;5.28;;;;;;;36.29;30.49;98281.13;5092329;28;20085;-48
2022/08/18 09:04:34;;;;;;;4.78;2.40;;;;;;;36.59;28.91;98275.41;5093713;28;20515;-47
2022/08/18 09:07:39;;;;;;;14.77;3.28;;;;;;;36.49;29.47;98273.44;5092372;28;20028;-48
2022/08/18 09:10:23;;;;;;;8.65;2.90;;;;;;;36.20;29.45;98276.00;5093612;28;20490;-48
2022/08/18 09:12:52;;;;;;;7.95;3.20;;;;;;;35.38;30.36;98273.41;5093566;28;20074;-49
2022/08/18 09:15:43;;;;;;;14.27;3.88;;;;;;;34.71;31.23;98263.34;5092112;28;20073;-48
2022/08/18 09:18:24;;;;;;;9.45;3.42;;;;;;;33.74;32.24;98253.81;5092032;28;20031;-48
2022/08/18 09:21:03;;;;;;;5.53;3.20;;;;;;;33.27;33.37;98244.84;5093195;28;20020;-48
2022/08/18 09:24:01;;;;;;;7.47;4.20;;;;;;;33.01;33.20;98237.38;5093509;28;20028;-48
2022/08/18 09:26:39;;;;;;;7.38;3.08;;;;;;;33.23;33.53;98233.91;5063747;28;20085;-48
2022/08/18 09:29:22;;;;;;;9.68;3.75;;;;;;;33.47;33.01;98244.81;5091632;28;20032;-49
2022/08/18 09:32:08;;;;;;;10.32;3.60;;;;;;;33.30;33.72;98248.78;5093077;28;20103;-49
2022/08/18 09:34:59;;;;;;;5.55;3.67;;;;;;;33.10;33.97;98242.59;5092800;28;20139;-48
2022/08/18 09:44:09;;;;;;;6.78;4.55;;;;;;;32.84;34.66;98255.72;5093165;28;20063;-48
2022/08/18 09:46:46;;;;;;;5.85;2.70;;;;;;;32.70;34.43;98260.06;5092800;28;20115;-49
2022/08/18 09:49:21;;;;;;;4.75;3.10;;;;;;;32.64;34.78;98254.16;5091429;28;20583;-48
2022/08/18 09:51:49;;;;;;;10.52;3.13;;;;;;;32.91;34.74;98244.19;5092741;28;20034;-49
2022/08/18 09:54:26;;;;;;;5.03;3.08;;;;;;;33.24;34.05;98251.00;5092708;28;20031;-50
2022/08/18 09:57:16;;;;;;;5.22;3.38;;;;;;;33.61;33.87;98247.75;5092628;28;20497;-49
2022/08/18 09:59:44;;;;;;;9.82;3.53;;;;;;;33.49;33.41;98239.78;5092582;28;20511;-49
2022/08/18 10:02:31;;;;;;;4.55;2.90;;;;;;;32.87;34.64;98243.31;5091133;28;20030;-46
2022/08/18 10:05:18;;;;;;;24.38;5.32;;;;;;;32.04;35.64;98251.69;5090985;28;20444;-50
2022/08/18 10:08:15;;;;;;;3.85;3.10;;;;;;;31.15;37.23;98255.66;5092414;28;20028;-49
2022/08/18 10:10:55;;;;;;;6.50;3.40;;;;;;;30.46;38.80;98253.78;5070851;28;20043;-49
2022/08/18 10:13:41;;;;;;;9.88;3.90;;;;;;;30.31;38.91;98261.84;5091084;28;20024;-49
2022/08/18 10:16:42;;;;;;;6.65;3.92;;;;;;;30.07;39.32;98252.59;5092299;28;20447;-50
2022/08/18 10:19:36;;;;;;;10.18;3.40;;;;;;;30.06;39.44;98248.28;5092328;28;20031;-50
2022/08/18 10:22:06;;;;;;;5.68;3.00;;;;;;;30.24;39.69;98251.53;5090877;28;20020;-50
2022/08/18 10:24:56;;;;;;;6.00;3.30;;;;;;;30.89;38.23;98243.41;5092190;28;20031;-49
2022/08/18 10:27:54;;;;;;;9.70;3.95;;;;;;;31.51;37.23;98243.03;5091821;28;20055;-49
2022/08/18 10:30:27;;;;;;;10.77;3.47;;;;;;;31.76;36.58;98233.59;5092096;28;20067;-49
2022/08/18 10:32:52;;;;;;;3.63;2.78;;;;;;;32.00;35.25;98234.53;5092302;28;20028;-48
2022/08/18 10:35:36;;;;;;;6.22;3.40;;;;;;;32.35;35.25;98239.16;5092028;28;20105;-48
2022/08/18 10:38:35;;;;;;;8.23;2.80;;;;;;;32.22;35.87;98242.00;5092308;28;20051;-48
2022/08/18 10:41:17;;;;;;;6.03;3.30;;;;;;;31.94;35.75;98239.41;5091421;28;20028;-49
2022/08/18 10:43:46;;;;;;;8.57;3.00;;;;;;;31.53;36.25;98244.28;5090666;28;20113;-49
2022/08/18 10:46:19;;;;;;;5.03;2.65;;;;;;;31.55;36.32;98241.19;5091855;28;20098;-49
2022/08/18 10:48:59;;;;;;;8.90;3.38;;;;;;;31.81;36.22;98243.38;5091873;28;20020;-49
2022/08/18 10:52:01;;;;;;;8.00;2.78;;;;;;;32.04;35.49;98238.13;5091894;28;20089;-50
2022/08/18 10:55:02;;;;;;;6.10;3.53;;;;;;;31.91;35.28;98231.97;5091809;28;20078;-49
2022/08/18 10:57:59;;;;;;;8.25;2.95;;;;;;;31.69;35.47;98227.97;5091688;28;20028;-47
2022/08/18 11:00:52;;;;;;;17.83;3.58;;;;;;;31.94;35.30;98231.28;5090393;28;20497;-49
2022/08/18 11:03:39;;;;;;;18.23;3.55;;;;;;;32.44;34.91;98221.50;5091752;28;20492;-50
2022/08/18 11:06:08;;;;;;;14.18;3.70;;;;;;;32.92;34.13;98228.66;5091775;28;20032;-48
2022/08/18 11:08:41;;;;;;;18.30;3.70;;;;;;;33.17;33.01;98216.31;5091713;28;20107;-48
2022/08/18 11:11:10;;;;;;;12.27;3.22;;;;;;;33.11;33.42;98219.72;5091954;28;20393;-49
2022/08/18 11:13:55;;;;;;;12.85;3.22;;;;;;;32.97;33.48;98226.44;5091556;28;20083;-48
2022/08/18 11:16:35;;;;;;;12.13;3.67;;;;;;;32.64;33.49;98233.19;5091710;28;20547;-48
2022/08/18 11:19:10;;;;;;;17.30;3.55;;;;;;;32.64;33.66;98225.03;5091688;28;20044;-49
2022/08/18 11:21:35;;;;;;;26.13;4.38;;;;;;;32.79;34.03;98226.09;5090148;28;20101;-50
2022/08/18 11:24:23;;;;;;;18.67;3.65;;;;;;;32.96;33.41;98227.59;5091562;28;20502;-48
2022/08/18 11:26:55;;;;;;;19.90;4.63;;;;;;;32.67;34.06;98220.81;5091294;28;20130;-49
2022/08/18 11:29:32;;;;;;;18.45;4.43;;;;;;;32.71;34.09;98235.25;5090129;28;20036;-49
2022/08/18 11:32:04;;;;;;;10.48;3.50;;;;;;;32.74;33.98;98244.63;5091506;28;20024;-49
2022/08/18 11:34:42;;;;;;;12.07;4.07;;;;;;;32.22;33.94;98241.22;5091705;28;20040;-50
2022/08/18 11:37:40;;;;;;;16.13;3.88;;;;;;;31.58;35.35;98248.66;5090131;28;20476;-50
2022/08/18 11:40:38;;;;;;;11.27;2.90;;;;;;;31.00;36.23;98252.59;5064874;28;20043;-50
2022/08/18 11:43:18;;;;;;;8.77;2.97;;;;;;;30.53;36.77;98245.09;5085533;28;20029;-48
2022/08/18 11:45:45;;;;;;;15.27;2.78;;;;;;;30.60;37.42;98244.47;5090074;28;20028;-49
2022/08/18 11:48:14;;;;;;;8.63;2.58;;;;;;;30.64;37.05;98243.44;5091350;28;20024;-49
2022/08/18 11:50:48;;;;;;;9.80;3.13;;;;;;;30.56;37.25;98236.25;5092025;28;20031;-49
2022/08/18 11:53:25;;;;;;;15.73;7.85;;;;;;;30.34;37.69;98244.91;5095236;28;20519;-49
2022/08/18 11:56:12;;;;;;;12.98;3.70;;;;;;;30.11;38.36;98242.66;5093685;28;20406;-49
2022/08/18 11:58:50;;;;;;;14.88;4.15;;;;;;;29.98;38.15;98246.50;5093611;28;20088;-47
2022/08/18 12:01:44;;;;;;;17.23;2.92;;;;;;;30.10;37.48;98248.41;5094733;28;20063;-48
2022/08/18 12:04:13;;;;;;;66.95;53.75;;;;;;;30.20;37.67;98256.06;5087706;28;20028;-48
2022/08/18 12:07:07;;;;;;;47.05;26.55;;;;;;;30.20;37.57;98254.16;5094638;28;20081;-48
2022/08/18 12:09:42;;;;;;;10.68;4.13;;;;;;;30.07;38.54;98252.59;5110494;28;20016;-48
2022/08/18 12:12:26;;;;;;;10.20;3.05;;;;;;;30.10;38.61;98246.47;5094530;28;20555;-49
2022/08/18 12:15:13;;;;;;;4.65;2.80;;;;;;;29.87;39.06;98249.66;5093393;28;20036;-49
2022/08/18 12:17:40;;;;;;;5.78;2.95;;;;;;;29.95;39.11;98250.69;5094628;28;20122;-48